Latest Weather Observations for Arlington Reef

IDQ60801

Issued at 1:12 am EST Monday 10 August 2020 (issued every 10 minutes, with the page automatically refreshed every 10 minutes)

About weather observations | Map of weather stations | Latest weather observations for QLD | Other Formats
Station Details ID: 200879 Name: ARLINGTON REEF Lat: -16.72 Lon: 146.11 Height: 0.0 m
Data from the previous 72 hours. | See also: Recent months at Arlington Reef
Date/Time
EST
Temp
°C
App
Temp
°C
Dew
Point
°C
Rel
Hum
%
Delta-T
°C
Wind Press
QNH
hPa
Press
MSL
hPa
Rain since
9am
mm
Dir  Spd
km/h
Gust
km/h
Spd
kts
Gust
kts
10/01:00am - - - - - SSE 13 15 7 8 1014.8 1014.8 -
10/12:30am - - - - - SSE 15 17 8 9 1015.1 1015.1 -
10/12:00am - - - - - SSE 15 19 8 10 1015.3 1015.3 -
 
Date/Time
EST
Temp
°C
App
Temp
°C
Dew
Point
°C
Rel
Hum
%
Delta-T
°C
Wind Press
QNH
hPa
Press
MSL
hPa
Rain since
9am
mm
Dir  Spd
km/h
Gust
km/h
Spd
kts
Gust
kts
09/11:30pm - - - - - SE 15 19 8 10 1015.4 1015.4 -
09/11:00pm - - - - - SE 17 20 9 11 1015.5 1015.5 -
09/10:30pm - - - - - SE 17 19 9 10 1015.7 1015.7 -
09/10:00pm - - - - - SE 15 19 8 10 1015.8 1015.8 -
09/09:30pm - - - - - SE 17 20 9 11 1015.5 1015.5 -
09/09:00pm - - - - - SE 19 22 10 12 1015.4 1015.4 -
09/08:30pm - - - - - SE 19 22 10 12 1015.4 1015.4 -
09/08:00pm - - - - - SE 22 26 12 14 1015.2 1015.2 -
09/07:30pm - - - - - SE 22 26 12 14 1014.7 1014.7 -
09/07:00pm - - - - - SE 26 28 14 15 1014.2 1014.2 -
09/06:30pm - - - - - SE 26 32 14 17 1013.8 1013.8 -
09/06:00pm - - - - - SE 26 32 14 17 1013.4 1013.4 -
09/05:30pm - - - - - SE 26 30 14 16 1013.2 1013.2 -
09/05:00pm - - - - - SE 28 30 15 16 1013.0 1013.0 -
09/04:30pm - - - - - SE 30 33 16 18 1012.6 1012.6 -
09/04:00pm - - - - - SE 30 33 16 18 1012.5 1012.5 -
09/03:30pm - - - - - SSE 32 35 17 19 1012.2 1012.2 -
09/03:00pm - - - - - SSE 32 37 17 20 1012.2 1012.2 -
09/02:30pm - - - - - SSE 32 35 17 19 1012.4 1012.4 -
09/02:00pm - - - - - SSE 30 35 16 19 1012.4 1012.4 -
09/01:30pm - - - - - S 30 33 16 18 1012.7 1012.7 -
09/01:00pm - - - - - SSE 30 33 16 18 1013.0 1013.0 -
09/12:30pm - - - - - SSE 32 37 17 20 1013.6 1013.6 -
09/12:00pm - - - - - S 26 30 14 16 1014.2 1014.2 -
09/11:30am - - - - - S 26 30 14 16 1014.7 1014.7 -
09/11:00am - - - - - S 24 28 13 15 1015.1 1015.1 -
09/10:30am - - - - - S 26 30 14 16 1015.3 1015.3 -
09/10:00am - - - - - S 28 33 15 18 1015.5 1015.5 -
09/09:30am - - - - - S 28 33 15 18 1015.5 1015.5 -
09/09:00am - - - - - S 28 33 15 18 1015.3 1015.3 -
09/08:30am - - - - - S 28 32 15 17 1015.1 1015.1 -
09/08:00am - - - - - S 28 30 15 16 1015.0 1015.0 -
09/07:30am - - - - - S 26 32 14 17 1014.7 1014.7 -
09/07:00am - - - - - S 26 30 14 16 1014.3 1014.3 -
09/06:30am - - - - - S 26 30 14 16 1013.9 1013.9 -
09/06:00am - - - - - S 26 28 14 15 1013.6 1013.6 -
09/05:30am - - - - - S 24 26 13 14 1013.4 1013.4 -
09/05:00am - - - - - S 24 28 13 15 1013.2 1013.2 -
09/04:30am - - - - - S 24 30 13 16 1013.3 1013.3 -
09/04:00am - - - - - S 22 26 12 14 1013.4 1013.4 -
09/03:30am - - - - - S 22 28 12 15 1013.2 1013.2 -
09/03:00am - - - - - S 24 28 13 15 1013.2 1013.2 -
09/02:30am - - - - - SSE 24 28 13 15 1013.3 1013.3 -
09/02:00am - - - - - SSE 20 26 11 14 1013.5 1013.5 -
09/01:30am - - - - - SE 22 28 12 15 1013.7 1013.7 -
09/01:00am - - - - - SE 20 24 11 13 1014.4 1014.4 -
09/12:30am - - - - - SE 20 24 11 13 1014.5 1014.5 -
09/12:00am - - - - - SSE 22 26 12 14 1014.6 1014.6 -
 
Date/Time
EST
Temp
°C
App
Temp
°C
Dew
Point
°C
Rel
Hum
%
Delta-T
°C
Wind Press
QNH
hPa
Press
MSL
hPa
Rain since
9am
mm
Dir  Spd
km/h
Gust
km/h
Spd
kts
Gust
kts
08/11:30pm - - - - - SSE 22 24 12 13 1014.8 1014.8 -
08/11:00pm - - - - - SSE 24 28 13 15 1014.8 1014.8 -
08/10:30pm - - - - - SE 22 26 12 14 1014.8 1014.8 -
08/10:00pm - - - - - SE 20 24 11 13 1014.9 1014.9 -
08/09:30pm - - - - - SSE 22 24 12 13 1014.7 1014.7 -
08/09:00pm - - - - - SSE 22 26 12 14 1014.5 1014.5 -
08/08:30pm - - - - - SSE 26 30 14 16 1014.3 1014.3 -
08/08:00pm - - - - - SSE 28 33 15 18 1014.1 1014.1 -
08/07:30pm - - - - - SE 26 30 14 16 1013.7 1013.7 -
08/07:00pm - - - - - SE 30 33 16 18 1013.4 1013.4 -
08/06:30pm - - - - - SSE 28 33 15 18 1013.0 1013.0 -
08/06:00pm - - - - - SSE 30 35 16 19 1012.9 1012.9 -
08/05:30pm - - - - - SSE 28 32 15 17 1012.4 1012.4 -
08/05:00pm - - - - - SSE 28 32 15 17 1012.4 1012.4 -
08/04:30pm - - - - - SSE 28 32 15 17 1012.1 1012.1 -
08/04:00pm - - - - - SE 28 32 15 17 1011.8 1011.8 -
08/03:30pm - - - - - SE 28 32 15 17 1011.7 1011.7 -
08/03:00pm - - - - - SE 30 33 16 18 1011.8 1011.8 -
08/02:30pm - - - - - SSE 26 32 14 17 1012.1 1012.1 -
08/02:00pm - - - - - SSE 28 33 15 18 1012.5 1012.5 -
08/01:30pm - - - - - SSE 24 30 13 16 1012.6 1012.6 -
08/01:00pm - - - - - S 26 32 14 17 1012.8 1012.8 -
08/12:30pm - - - - - S 22 26 12 14 1013.2 1013.2 -
08/12:00pm - - - - - SSE 22 24 12 13 1013.6 1013.6 -
08/11:30am - - - - - SSE 17 19 9 10 1014.0 1014.0 -
08/11:00am - - - - - S 15 17 8 9 1014.6 1014.6 -
08/10:30am - - - - - SSW 9 11 5 6 1014.8 1014.8 -
08/10:00am - - - - - WSW 4 7 2 4 1014.9 1014.9 -
08/09:30am - - - - - CALM 0 0 0 0 1014.9 1014.9 -
08/09:00am - - - - - CALM 0 0 0 0 1014.7 1014.7 -
08/08:30am - - - - - CALM 0 0 0 0 1014.4 1014.4 -
08/08:00am - - - - - S 6 6 3 3 1014.0 1014.0 -
08/07:30am - - - - - S 9 9 5 5 1013.8 1013.8 -
08/07:00am - - - - - SSE 7 9 4 5 1013.4 1013.4 -
08/06:30am - - - - - SSW 7 7 4 4 1013.2 1013.2 -
08/06:00am - - - - - SSW 6 7 3 4 1012.8 1012.8 -
08/05:30am - - - - - SSW 6 6 3 3 1012.5 1012.5 -
08/05:00am - - - - - SSW 6 6 3 3 1012.2 1012.2 -
08/04:30am - - - - - S 7 9 4 5 1012.2 1012.2 -
08/04:00am - - - - - S 9 9 5 5 1012.1 1012.1 -
08/03:30am - - - - - S 7 9 4 5 1012.0 1012.0 -
08/03:00am - - - - - SSE 7 9 4 5 1012.0 1012.0 -
08/02:30am - - - - - SSE 7 7 4 4 1012.1 1012.1 -
08/02:00am - - - - - SSE 7 7 4 4 1012.2 1012.2 -
08/01:30am - - - - - S 7 9 4 5 1012.4 1012.4 -
08/01:00am - - - - - S 9 9 5 5 1012.7 1012.7 -
08/12:30am - - - - - SSE 9 9 5 5 1013.0 1013.0 -
08/12:00am - - - - - SE 9 9 5 5 1013.2 1013.2 -
 
Date/Time
EST
Temp
°C
App
Temp
°C
Dew
Point
°C
Rel
Hum
%
Delta-T
°C
Wind Press
QNH
hPa
Press
MSL
hPa
Rain since
9am
mm
Dir  Spd
km/h
Gust
km/h
Spd
kts
Gust
kts
07/11:30pm - - - - - SSE 7 9 4 5 1013.4 1013.4 -
07/11:00pm - - - - - SSE 6 6 3 3 1013.6 1013.6 -
07/10:30pm - - - - - SE 6 7 3 4 1013.7 1013.7 -
07/10:00pm - - - - - ESE 6 6 3 3 1013.7 1013.7 -
07/09:30pm - - - - - ESE 6 7 3 4 1013.5 1013.5 -
07/09:00pm - - - - - E 6 6 3 3 1013.4 1013.4 -
07/08:30pm - - - - - ENE 6 6 3 3 1013.3 1013.3 -
07/08:00pm - - - - - CALM 0 0 0 0 1013.0 1013.0 -
07/07:30pm - - - - - ENE 2 4 1 2 1012.6 1012.6 -
07/07:00pm - - - - - ENE 4 6 2 3 1012.0 1012.0 -
07/06:30pm - - - - - NE 7 9 4 5 1011.5 1011.5 -
07/06:00pm - - - - - NE 7 7 4 4 1011.2 1011.2 -
07/05:30pm - - - - - NE 9 11 5 6 1010.8 1010.8 -
07/05:00pm - - - - - NE 11 11 6 6 1010.7 1010.7 -
07/04:30pm - - - - - ENE 7 9 4 5 1010.5 1010.5 -
07/04:00pm - - - - - ENE 4 6 2 3 1010.3 1010.3 -
07/03:30pm - - - - - ENE 6 9 3 5 1010.4 1010.4 -
07/03:00pm - - - - - ENE 4 6 2 3 1010.6 1010.6 -
07/02:30pm - - - - - ENE 13 15 7 8 1010.7 1010.7 -
07/02:00pm - - - - - E 11 11 6 6 1011.1 1011.1 -
07/01:30pm - - - - - ESE 7 9 4 5 1011.3 1011.3 -
07/01:00pm - - - - - SE 6 7 3 4 1011.7 1011.7 -
07/12:30pm - - - - - SSE 6 6 3 3 1012.0 1012.0 -
07/12:00pm - - - - - SSE 7 9 4 5 1012.3 1012.3 -
07/11:30am - - - - - S 9 11 5 6 1012.7 1012.7 -
07/11:00am - - - - - S 11 13 6 7 1012.9 1012.9 -
07/10:30am - - - - - S 9 11 5 6 1013.2 1013.2 -
07/10:00am - - - - - S 9 11 5 6 1013.5 1013.5 -
07/09:30am - - - - - SSW 9 11 5 6 1013.6 1013.6 -
07/09:00am - - - - - S 9 11 5 6 1013.6 1013.6 -
07/08:30am - - - - - SSW 6 9 3 5 1013.3 1013.3 -
07/08:00am - - - - - SSW 7 9 4 5 1013.1 1013.1 -
07/07:30am - - - - - SSW 9 11 5 6 1012.9 1012.9 -
07/07:00am - - - - - SSW 9 11 5 6 1012.7 1012.7 -
07/06:30am - - - - - S 11 13 6 7 1012.2 1012.2 -
07/06:00am - - - - - SSE 11 13 6 7 1012.1 1012.1 -
07/05:30am - - - - - SSE 11 13 6 7 1011.8 1011.8 -
07/05:00am - - - - - SSW 11 13 6 7 1011.7 1011.7 -
07/04:30am - - - - - SSW 11 13 6 7 1011.8 1011.8 -
07/04:00am - - - - - S 15 15 8 8 1011.7 1011.7 -
07/03:30am - - - - - S 13 15 7 8 1011.8 1011.8 -
07/03:00am - - - - - SSW 11 13 6 7 1012.0 1012.0 -
07/02:30am - - - - - SSW 11 13 6 7 1012.5 1012.5 -
07/02:00am - - - - - SSW 11 13 6 7 1012.9 1012.9 -
07/01:30am - - - - - SSW 11 13 6 7 1013.2 1013.2 -

Other formats

Comma delimited format used in spreadsheet applications
http://www.bom.gov.au/fwo/IDQ60801/IDQ60801.94284.axf

JavaScript Object Notation format (JSON) in row-major order
http://www.bom.gov.au/fwo/IDQ60801/IDQ60801.94284.json

Data quality

Most of these data are generated automatically and are frequently updated. Quality checks on data are not normally performed. It is possible for incorrect values to appear. Refer to information at About Latest Weather Observations and please check the disclaimer before using these data.